sensor_id;sensor_type;location;lat;lon;timestamp;pressure;altitude;pressure_sealevel;temperature;humidity
11415;BME280;5763;42.714;23.244;2023-03-19T00:00:13;95094.69;;;4.75;52.93
11415;BME280;5763;42.714;23.244;2023-03-19T00:02:40;95098.53;;;4.78;52.69
11415;BME280;5763;42.714;23.244;2023-03-19T00:05:10;95093.16;;;4.74;52.75
11415;BME280;5763;42.714;23.244;2023-03-19T00:07:38;95094.78;;;4.68;53.32
11415;BME280;5763;42.714;23.244;2023-03-19T00:10:05;95098.97;;;4.73;53.12
11415;BME280;5763;42.714;23.244;2023-03-19T00:12:32;95101.56;;;4.83;52.74
11415;BME280;5763;42.714;23.244;2023-03-19T00:14:59;95095.00;;;4.81;52.57
11415;BME280;5763;42.714;23.244;2023-03-19T00:17:26;95104.34;;;4.76;52.66
11415;BME280;5763;42.714;23.244;2023-03-19T00:19:52;95109.41;;;4.74;52.74
11415;BME280;5763;42.714;23.244;2023-03-19T00:22:19;95103.28;;;4.67;52.90
11415;BME280;5763;42.714;23.244;2023-03-19T00:24:47;95094.38;;;4.66;53.06
11415;BME280;5763;42.714;23.244;2023-03-19T00:27:14;95081.28;;;4.61;53.24
11415;BME280;5763;42.714;23.244;2023-03-19T00:29:40;95087.44;;;4.65;53.09
11415;BME280;5763;42.714;23.244;2023-03-19T00:32:07;95092.06;;;4.68;53.18
11415;BME280;5763;42.714;23.244;2023-03-19T00:34:34;95085.50;;;4.62;52.96
11415;BME280;5763;42.714;23.244;2023-03-19T00:37:01;95044.75;;;4.32;53.32
11415;BME280;5763;42.714;23.244;2023-03-19T00:39:27;95070.50;;;4.54;53.30
11415;BME280;5763;42.714;23.244;2023-03-19T00:41:55;95078.63;;;4.54;53.37
11415;BME280;5763;42.714;23.244;2023-03-19T00:44:22;95077.47;;;4.55;53.38
11415;BME280;5763;42.714;23.244;2023-03-19T00:46:49;95071.00;;;4.42;53.78
11415;BME280;5763;42.714;23.244;2023-03-19T00:49:16;95072.59;;;4.36;54.14
11415;BME280;5763;42.714;23.244;2023-03-19T00:51:42;95062.06;;;4.45;54.27
11415;BME280;5763;42.714;23.244;2023-03-19T00:54:10;95056.66;;;4.45;54.58
11415;BME280;5763;42.714;23.244;2023-03-19T00:56:37;95060.91;;;4.46;54.58
11415;BME280;5763;42.714;23.244;2023-03-19T00:59:06;95061.25;;;4.52;53.91
11415;BME280;5763;42.714;23.244;2023-03-19T01:01:33;95057.75;;;4.51;54.15
11415;BME280;5763;42.714;23.244;2023-03-19T01:04:00;95038.78;;;4.51;53.77
11415;BME280;5763;42.714;23.244;2023-03-19T01:06:27;95054.69;;;4.49;53.98
11415;BME280;5763;42.714;23.244;2023-03-19T01:08:54;95054.59;;;4.56;53.87
11415;BME280;5763;42.714;23.244;2023-03-19T01:11:21;95048.44;;;4.52;53.75
11415;BME280;5763;42.714;23.244;2023-03-19T01:13:48;95043.84;;;4.49;53.97
11415;BME280;5763;42.714;23.244;2023-03-19T01:16:16;95040.31;;;4.52;54.02
11415;BME280;5763;42.714;23.244;2023-03-19T01:18:43;95040.78;;;4.44;54.38
11415;BME280;5763;42.714;23.244;2023-03-19T01:21:12;95029.91;;;4.47;54.43
11415;BME280;5763;42.714;23.244;2023-03-19T01:23:41;95046.91;;;4.51;54.07
11415;BME280;5763;42.714;23.244;2023-03-19T01:26:10;95044.59;;;4.53;54.00
11415;BME280;5763;42.714;23.244;2023-03-19T01:28:38;95050.72;;;4.61;54.23
11415;BME280;5763;42.714;23.244;2023-03-19T01:31:06;95042.91;;;4.66;53.47
11415;BME280;5763;42.714;23.244;2023-03-19T01:33:36;95050.63;;;4.68;54.00
11415;BME280;5763;42.714;23.244;2023-03-19T01:36:03;95048.22;;;4.73;54.37
11415;BME280;5763;42.714;23.244;2023-03-19T01:38:31;95038.91;;;4.78;53.90
11415;BME280;5763;42.714;23.244;2023-03-19T01:40:58;95048.16;;;4.80;54.09
11415;BME280;5763;42.714;23.244;2023-03-19T01:43:29;95044.28;;;4.81;53.93
11415;BME280;5763;42.714;23.244;2023-03-19T01:46:00;95045.16;;;4.71;53.80
11415;BME280;5763;42.714;23.244;2023-03-19T01:48:38;95052.06;;;4.79;53.90
11415;BME280;5763;42.714;23.244;2023-03-19T01:51:08;95049.38;;;4.76;54.16
11415;BME280;5763;42.714;23.244;2023-03-19T01:53:36;95052.81;;;4.80;54.22
11415;BME280;5763;42.714;23.244;2023-03-19T01:56:08;95054.03;;;4.75;54.54
11415;BME280;5763;42.714;23.244;2023-03-19T01:58:36;95047.78;;;4.78;54.05
11415;BME280;5763;42.714;23.244;2023-03-19T02:01:05;95046.25;;;4.77;54.33
11415;BME280;5763;42.714;23.244;2023-03-19T02:03:33;95048.63;;;4.75;55.07
11415;BME280;5763;42.714;23.244;2023-03-19T02:06:02;95047.44;;;4.76;54.99
11415;BME280;5763;42.714;23.244;2023-03-19T02:08:30;95048.69;;;4.68;55.06
11415;BME280;5763;42.714;23.244;2023-03-19T02:10:57;95042.06;;;4.73;55.21
11415;BME280;5763;42.714;23.244;2023-03-19T02:13:26;95042.50;;;4.68;55.26
11415;BME280;5763;42.714;23.244;2023-03-19T02:15:55;95041.66;;;4.74;55.09
11415;BME280;5763;42.714;23.244;2023-03-19T02:18:26;95041.06;;;4.56;55.86
11415;BME280;5763;42.714;23.244;2023-03-19T02:21:00;95046.88;;;4.58;55.10
11415;BME280;5763;42.714;23.244;2023-03-19T02:23:34;95040.72;;;4.54;55.21
11415;BME280;5763;42.714;23.244;2023-03-19T02:26:08;95050.88;;;4.43;55.48
11415;BME280;5763;42.714;23.244;2023-03-19T02:28:41;95034.38;;;4.27;55.28
11415;BME280;5763;42.714;23.244;2023-03-19T02:31:11;95024.06;;;4.12;55.69
11415;BME280;5763;42.714;23.244;2023-03-19T02:33:40;95054.53;;;4.23;55.98
11415;BME280;5763;42.714;23.244;2023-03-19T02:36:12;95050.25;;;4.25;55.38
11415;BME280;5763;42.714;23.244;2023-03-19T02:38:42;95054.13;;;4.24;55.53
11415;BME280;5763;42.714;23.244;2023-03-19T02:41:12;95057.28;;;4.19;56.22
11415;BME280;5763;42.714;23.244;2023-03-19T02:43:40;95054.97;;;4.18;55.95
11415;BME280;5763;42.714;23.244;2023-03-19T02:46:09;95055.66;;;4.25;55.92
11415;BME280;5763;42.714;23.244;2023-03-19T02:48:37;95066.47;;;4.29;56.22
11415;BME280;5763;42.714;23.244;2023-03-19T02:51:06;95062.59;;;4.30;56.44
11415;BME280;5763;42.714;23.244;2023-03-19T02:53:32;95018.38;;;3.99;56.46
11415;BME280;5763;42.714;23.244;2023-03-19T02:56:00;95061.84;;;4.29;56.46
11415;BME280;5763;42.714;23.244;2023-03-19T02:58:28;95059.47;;;4.31;56.24
11415;BME280;5763;42.714;23.244;2023-03-19T03:00:55;95068.78;;;4.30;56.48
11415;BME280;5763;42.714;23.244;2023-03-19T03:03:22;95071.84;;;4.32;56.74
11415;BME280;5763;42.714;23.244;2023-03-19T03:05:49;95076.41;;;4.42;56.50
11415;BME280;5763;42.714;23.244;2023-03-19T03:08:15;95066.44;;;4.36;56.89
11415;BME280;5763;42.714;23.244;2023-03-19T03:10:43;95073.34;;;4.40;56.52
11415;BME280;5763;42.714;23.244;2023-03-19T03:13:10;95076.13;;;4.33;56.29
11415;BME280;5763;42.714;23.244;2023-03-19T03:15:38;95079.59;;;4.34;56.47
11415;BME280;5763;42.714;23.244;2023-03-19T03:18:05;95079.69;;;4.23;56.90
11415;BME280;5763;42.714;23.244;2023-03-19T03:20:31;95078.84;;;4.30;56.64
11415;BME280;5763;42.714;23.244;2023-03-19T03:22:58;95074.19;;;4.30;56.71
11415;BME280;5763;42.714;23.244;2023-03-19T03:25:26;95075.81;;;4.24;56.24
11415;BME280;5763;42.714;23.244;2023-03-19T03:27:53;95079.75;;;4.13;57.01
11415;BME280;5763;42.714;23.244;2023-03-19T03:30:20;95089.09;;;4.08;56.75
11415;BME280;5763;42.714;23.244;2023-03-19T03:32:48;95077.88;;;4.06;57.54
11415;BME280;5763;42.714;23.244;2023-03-19T03:35:15;95079.41;;;4.11;57.00
11415;BME280;5763;42.714;23.244;2023-03-19T03:37:46;95087.91;;;4.09;56.74
11415;BME280;5763;42.714;23.244;2023-03-19T03:40:13;95075.16;;;4.06;56.66
11415;BME280;5763;42.714;23.244;2023-03-19T03:42:40;95079.09;;;3.98;57.22
11415;BME280;5763;42.714;23.244;2023-03-19T03:45:08;95075.22;;;3.99;57.08
11415;BME280;5763;42.714;23.244;2023-03-19T03:47:36;95077.22;;;3.92;57.55
11415;BME280;5763;42.714;23.244;2023-03-19T03:50:06;95083.41;;;3.92;57.36
11415;BME280;5763;42.714;23.244;2023-03-19T03:52:35;95081.88;;;3.88;57.35
11415;BME280;5763;42.714;23.244;2023-03-19T03:55:02;95078.03;;;3.85;57.63
11415;BME280;5763;42.714;23.244;2023-03-19T03:57:29;95087.31;;;3.84;57.88
11415;BME280;5763;42.714;23.244;2023-03-19T03:59:57;95089.25;;;3.87;57.62
11415;BME280;5763;42.714;23.244;2023-03-19T04:02:24;95085.38;;;3.88;57.86
11415;BME280;5763;42.714;23.244;2023-03-19T04:04:52;95083.03;;;3.90;57.92
11415;BME280;5763;42.714;23.244;2023-03-19T04:07:20;95080.28;;;3.94;57.90
11415;BME280;5763;42.714;23.244;2023-03-19T04:09:47;95081.41;;;4.00;57.67
11415;BME280;5763;42.714;23.244;2023-03-19T04:12:15;95080.72;;;3.85;57.82
11415;BME280;5763;42.714;23.244;2023-03-19T04:14:42;95084.94;;;3.93;57.83
11415;BME280;5763;42.714;23.244;2023-03-19T04:17:09;95079.13;;;3.91;57.62
11415;BME280;5763;42.714;23.244;2023-03-19T04:19:36;95075.28;;;3.92;58.27
11415;BME280;5763;42.714;23.244;2023-03-19T04:22:03;95070.75;;;3.79;58.11
11415;BME280;5763;42.714;23.244;2023-03-19T04:24:33;95085.44;;;3.74;57.40
11415;BME280;5763;42.714;23.244;2023-03-19T04:27:00;95083.91;;;3.73;57.75
11415;BME280;5763;42.714;23.244;2023-03-19T04:29:26;95081.22;;;3.70;57.81
11415;BME280;5763;42.714;23.244;2023-03-19T04:31:53;95086.31;;;3.61;57.74
11415;BME280;5763;42.714;23.244;2023-03-19T04:34:20;95086.66;;;3.63;57.79
11415;BME280;5763;42.714;23.244;2023-03-19T04:36:47;95092.06;;;3.70;58.02
11415;BME280;5763;42.714;23.244;2023-03-19T04:39:14;95092.41;;;3.79;57.64
11415;BME280;5763;42.714;23.244;2023-03-19T04:41:42;95090.91;;;3.67;57.81
11415;BME280;5763;42.714;23.244;2023-03-19T04:44:09;95094.75;;;3.73;57.64
11415;BME280;5763;42.714;23.244;2023-03-19T04:46:36;95096.31;;;3.67;57.90
11415;BME280;5763;42.714;23.244;2023-03-19T04:49:03;95087.09;;;3.61;57.86
11415;BME280;5763;42.714;23.244;2023-03-19T04:51:30;95096.34;;;3.60;58.20
11415;BME280;5763;42.714;23.244;2023-03-19T04:53:57;95095.63;;;3.56;58.28
11415;BME280;5763;42.714;23.244;2023-03-19T04:56:24;95089.47;;;3.49;58.06
11415;BME280;5763;42.714;23.244;2023-03-19T04:58:53;95095.63;;;3.56;58.04
11415;BME280;5763;42.714;23.244;2023-03-19T05:01:20;95092.47;;;3.65;58.21
11415;BME280;5763;42.714;23.244;2023-03-19T05:03:47;95103.22;;;3.75;57.94
11415;BME280;5763;42.714;23.244;2023-03-19T05:06:14;95103.22;;;3.75;58.00
11415;BME280;5763;42.714;23.244;2023-03-19T05:08:41;95103.97;;;3.79;57.87
11415;BME280;5763;42.714;23.244;2023-03-19T05:11:08;95105.94;;;3.72;57.71
11415;BME280;5763;42.714;23.244;2023-03-19T05:13:35;95104.06;;;3.62;58.02
11415;BME280;5763;42.714;23.244;2023-03-19T05:16:03;95107.50;;;3.69;58.31
11415;BME280;5763;42.714;23.244;2023-03-19T05:18:30;95102.81;;;3.84;58.10
11415;BME280;5763;42.714;23.244;2023-03-19T05:20:57;95102.75;;;3.91;57.83
11415;BME280;5763;42.714;23.244;2023-03-19T05:23:24;95098.06;;;3.98;57.38
11415;BME280;5763;42.714;23.244;2023-03-19T05:25:51;95098.06;;;3.98;57.52
11415;BME280;5763;42.714;23.244;2023-03-19T05:28:18;95087.88;;;4.13;57.33
11415;BME280;5763;42.714;23.244;2023-03-19T05:30:45;95091.34;;;4.17;57.73
11415;BME280;5763;42.714;23.244;2023-03-19T05:33:13;95098.22;;;4.28;57.54
11415;BME280;5763;42.714;23.244;2023-03-19T05:35:40;95098.19;;;4.32;57.56
11415;BME280;5763;42.714;23.244;2023-03-19T05:38:07;95096.63;;;4.34;57.55
11415;BME280;5763;42.714;23.244;2023-03-19T05:40:33;95098.16;;;4.35;57.25
11415;BME280;5763;42.714;23.244;2023-03-19T05:43:01;95094.22;;;4.43;57.52
11415;BME280;5763;42.714;23.244;2023-03-19T05:45:27;95101.53;;;4.46;57.63
11415;BME280;5763;42.714;23.244;2023-03-19T05:47:54;95100.34;;;4.47;57.37
11415;BME280;5763;42.714;23.244;2023-03-19T05:50:22;95101.41;;;4.60;56.90
11415;BME280;5763;42.714;23.244;2023-03-19T05:52:49;95106.31;;;4.72;56.84
11415;BME280;5763;42.714;23.244;2023-03-19T05:55:16;95102.69;;;4.89;56.63
11415;BME280;5763;42.714;23.244;2023-03-19T05:57:43;95099.94;;;4.93;56.13
11415;BME280;5763;42.714;23.244;2023-03-19T06:00:11;95106.81;;;5.01;55.80
11415;BME280;5763;42.714;23.244;2023-03-19T06:02:38;95109.84;;;5.06;55.57
11415;BME280;5763;42.714;23.244;2023-03-19T06:05:05;95111.09;;;5.02;56.00
11415;BME280;5763;42.714;23.244;2023-03-19T06:07:34;95094.31;;;5.10;55.74
11415;BME280;5763;42.714;23.244;2023-03-19T06:10:01;95113.97;;;5.21;55.99
11415;BME280;5763;42.714;23.244;2023-03-19T06:12:28;95107.31;;;5.26;55.47
11415;BME280;5763;42.714;23.244;2023-03-19T06:14:55;95115.81;;;5.28;55.55
11415;BME280;5763;42.714;23.244;2023-03-19T06:17:22;95115.38;;;5.33;55.05
11415;BME280;5763;42.714;23.244;2023-03-19T06:19:48;95110.19;;;5.45;55.04
11415;BME280;5763;42.714;23.244;2023-03-19T06:22:15;95122.47;;;5.53;55.08
11415;BME280;5763;42.714;23.244;2023-03-19T06:24:43;95113.88;;;5.58;54.96
11415;BME280;5763;42.714;23.244;2023-03-19T06:27:10;95120.16;;;5.52;55.09
11415;BME280;5763;42.714;23.244;2023-03-19T06:29:37;95120.16;;;5.52;55.16
11415;BME280;5763;42.714;23.244;2023-03-19T06:32:04;95120.22;;;5.48;54.69
11415;BME280;5763;42.714;23.244;2023-03-19T06:34:32;95120.78;;;5.63;54.55
11415;BME280;5763;42.714;23.244;2023-03-19T06:36:59;95126.84;;;5.77;54.23
11415;BME280;5763;42.714;23.244;2023-03-19T06:39:26;95123.59;;;5.89;53.54
11415;BME280;5763;42.714;23.244;2023-03-19T06:41:54;95133.19;;;5.97;53.99
11415;BME280;5763;42.714;23.244;2023-03-19T06:44:21;95141.22;;;6.04;54.21
11415;BME280;5763;42.714;23.244;2023-03-19T06:46:49;95131.91;;;6.05;54.80
11415;BME280;5763;42.714;23.244;2023-03-19T06:49:16;95140.50;;;6.00;55.48
11415;BME280;5763;42.714;23.244;2023-03-19T06:51:43;95140.72;;;5.86;56.15
11415;BME280;5763;42.714;23.244;2023-03-19T06:54:10;95136.69;;;5.64;56.39
11415;BME280;5763;42.714;23.244;2023-03-19T06:56:37;95137.75;;;5.74;56.38
11415;BME280;5763;42.714;23.244;2023-03-19T06:59:05;95147.75;;;5.80;56.69
11415;BME280;5763;42.714;23.244;2023-03-19T07:01:32;95151.13;;;5.91;56.39
11415;BME280;5763;42.714;23.244;2023-03-19T07:03:59;95138.69;;;5.90;56.41
11415;BME280;5763;42.714;23.244;2023-03-19T07:06:26;95151.69;;;6.06;55.70
11415;BME280;5763;42.714;23.244;2023-03-19T07:08:52;95153.91;;;6.14;55.62
11415;BME280;5763;42.714;23.244;2023-03-19T07:11:20;95143.84;;;6.11;56.33
11415;BME280;5763;42.714;23.244;2023-03-19T07:13:47;95147.34;;;6.12;55.94
11415;BME280;5763;42.714;23.244;2023-03-19T07:16:15;95147.28;;;6.15;55.99
11415;BME280;5763;42.714;23.244;2023-03-19T07:18:42;95150.25;;;6.24;55.63
11415;BME280;5763;42.714;23.244;2023-03-19T07:21:09;95143.84;;;6.38;55.47
11415;BME280;5763;42.714;23.244;2023-03-19T07:23:35;95142.13;;;6.47;55.08
11415;BME280;5763;42.714;23.244;2023-03-19T07:26:02;95135.16;;;6.46;55.42
11415;BME280;5763;42.714;23.244;2023-03-19T07:28:29;95139.59;;;6.60;55.37
11415;BME280;5763;42.714;23.244;2023-03-19T07:30:56;95127.75;;;6.73;55.56
11415;BME280;5763;42.714;23.244;2023-03-19T07:33:24;95132.91;;;6.87;54.74
11415;BME280;5763;42.714;23.244;2023-03-19T07:35:51;95140.13;;;6.97;54.38
11415;BME280;5763;42.714;23.244;2023-03-19T07:38:18;95134.22;;;7.02;53.66
11415;BME280;5763;42.714;23.244;2023-03-19T07:40:45;95141.91;;;7.07;53.26
11415;BME280;5763;42.714;23.244;2023-03-19T07:43:11;95136.44;;;7.07;52.37
11415;BME280;5763;42.714;23.244;2023-03-19T07:45:38;95143.50;;;7.05;52.94
11415;BME280;5763;42.714;23.244;2023-03-19T07:48:05;95136.75;;;7.13;51.38
11415;BME280;5763;42.714;23.244;2023-03-19T07:50:34;95128.94;;;7.15;52.29
11415;BME280;5763;42.714;23.244;2023-03-19T07:53:01;95137.56;;;7.33;52.00
11415;BME280;5763;42.714;23.244;2023-03-19T07:55:28;95142.66;;;7.50;51.85
11415;BME280;5763;42.714;23.244;2023-03-19T07:57:55;95143.34;;;7.54;51.35
11415;BME280;5763;42.714;23.244;2023-03-19T08:00:22;95138.03;;;7.47;51.01
11415;BME280;5763;42.714;23.244;2023-03-19T08:02:49;95139.28;;;7.62;51.26
11415;BME280;5763;42.714;23.244;2023-03-19T08:05:16;95128.31;;;7.66;51.02
11415;BME280;5763;42.714;23.244;2023-03-19T08:07:44;95130.19;;;7.88;50.55
11415;BME280;5763;42.714;23.244;2023-03-19T08:10:11;95139.94;;;8.05;49.22
11415;BME280;5763;42.714;23.244;2023-03-19T08:12:38;95134.31;;;8.32;48.26
11415;BME280;5763;42.714;23.244;2023-03-19T08:15:08;95130.50;;;8.61;47.49
11415;BME280;5763;42.714;23.244;2023-03-19T08:17:35;95136.63;;;8.81;48.10
11415;BME280;5763;42.714;23.244;2023-03-19T08:20:05;95141.91;;;9.04;47.02
11415;BME280;5763;42.714;23.244;2023-03-19T08:22:33;95138.97;;;9.27;44.58
11415;BME280;5763;42.714;23.244;2023-03-19T08:25:01;95138.06;;;9.46;44.08
11415;BME280;5763;42.714;23.244;2023-03-19T08:27:28;95137.38;;;9.71;44.08
11415;BME280;5763;42.714;23.244;2023-03-19T08:29:56;95135.28;;;10.03;43.33
11415;BME280;5763;42.714;23.244;2023-03-19T08:32:23;95132.38;;;10.23;43.71
11415;BME280;5763;42.714;23.244;2023-03-19T08:34:50;95130.00;;;10.50;43.34
11415;BME280;5763;42.714;23.244;2023-03-19T08:37:17;95128.44;;;10.74;43.01
11415;BME280;5763;42.714;23.244;2023-03-19T08:39:44;95125.88;;;11.04;41.08
11415;BME280;5763;42.714;23.244;2023-03-19T08:42:13;95121.63;;;11.25;40.72
11415;BME280;5763;42.714;23.244;2023-03-19T08:44:40;95115.06;;;11.56;40.01
11415;BME280;5763;42.714;23.244;2023-03-19T08:47:07;95114.97;;;11.81;39.32
11415;BME280;5763;42.714;23.244;2023-03-19T08:49:34;95116.66;;;12.09;38.93
11415;BME280;5763;42.714;23.244;2023-03-19T08:52:01;95109.91;;;12.32;37.66
11415;BME280;5763;42.714;23.244;2023-03-19T08:54:27;95103.44;;;12.17;36.43
11415;BME280;5763;42.714;23.244;2023-03-19T08:56:54;95103.22;;;12.02;36.00
11415;BME280;5763;42.714;23.244;2023-03-19T08:59:22;95110.44;;;12.18;37.45
11415;BME280;5763;42.714;23.244;2023-03-19T09:01:50;95093.78;;;12.34;37.62
11415;BME280;5763;42.714;23.244;2023-03-19T09:04:17;95093.97;;;12.48;37.46
11415;BME280;5763;42.714;23.244;2023-03-19T09:06:45;95089.94;;;12.71;36.72
11415;BME280;5763;42.714;23.244;2023-03-19T09:09:15;95094.09;;;12.84;35.78
11415;BME280;5763;42.714;23.244;2023-03-19T09:11:42;95090.47;;;12.96;35.18
11415;BME280;5763;42.714;23.244;2023-03-19T09:14:09;95086.25;;;13.31;34.82
11415;BME280;5763;42.714;23.244;2023-03-19T09:16:38;95082.28;;;13.59;34.20
11415;BME280;5763;42.714;23.244;2023-03-19T09:19:05;95079.53;;;13.59;33.11
11415;BME280;5763;42.714;23.244;2023-03-19T09:21:32;95077.66;;;13.83;32.86
11415;BME280;5763;42.714;23.244;2023-03-19T09:23:59;95074.25;;;14.06;32.32
11415;BME280;5763;42.714;23.244;2023-03-19T09:26:26;95083.09;;;14.28;30.88
11415;BME280;5763;42.714;23.244;2023-03-19T09:28:54;95081.91;;;14.53;30.22
11415;BME280;5763;42.714;23.244;2023-03-19T09:31:20;95078.00;;;14.77;29.13
11415;BME280;5763;42.714;23.244;2023-03-19T09:33:49;95081.00;;;14.88;26.86
11415;BME280;5763;42.714;23.244;2023-03-19T09:36:16;95070.50;;;15.01;28.15
11415;BME280;5763;42.714;23.244;2023-03-19T09:38:43;95069.94;;;15.44;28.04
11415;BME280;5763;42.714;23.244;2023-03-19T09:41:16;95071.13;;;15.81;28.11
11415;BME280;5763;42.714;23.244;2023-03-19T09:43:56;95065.16;;;15.97;29.02
11415;BME280;5763;42.714;23.244;2023-03-19T09:46:28;95069.72;;;16.00;27.20
11415;BME280;5763;42.714;23.244;2023-03-19T09:49:03;95069.53;;;16.04;28.08
11415;BME280;5763;42.714;23.244;2023-03-19T09:51:37;95058.41;;;16.13;28.14
11415;BME280;5763;42.714;23.244;2023-03-19T09:54:18;95060.28;;;16.50;28.34
11415;BME280;5763;42.714;23.244;2023-03-19T09:56:48;95058.16;;;16.74;28.07
11415;BME280;5763;42.714;23.244;2023-03-19T09:59:15;95047.13;;;16.60;26.90
11415;BME280;5763;42.714;23.244;2023-03-19T10:01:46;95046.41;;;16.79;26.63
11415;BME280;5763;42.714;23.244;2023-03-19T10:04:38;95041.75;;;17.05;26.85
11415;BME280;5763;42.714;23.244;2023-03-19T10:07:14;95049.09;;;17.08;25.53
11415;BME280;5763;42.714;23.244;2023-03-19T10:09:51;95045.78;;;17.24;26.00
11415;BME280;5763;42.714;23.244;2023-03-19T10:12:28;95042.59;;;17.52;25.66
11415;BME280;5763;42.714;23.244;2023-03-19T10:15:07;95035.41;;;17.60;26.37
11415;BME280;5763;42.714;23.244;2023-03-19T10:17:39;95025.22;;;17.51;27.11
11415;BME280;5763;42.714;23.244;2023-03-19T10:20:15;95025.66;;;17.90;27.36
11415;BME280;5763;42.714;23.244;2023-03-19T10:22:48;95022.41;;;18.22;26.68
11415;BME280;5763;42.714;23.244;2023-03-19T10:25:19;95021.41;;;18.51;26.24
11415;BME280;5763;42.714;23.244;2023-03-19T10:27:52;95016.81;;;18.79;25.11
11415;BME280;5763;42.714;23.244;2023-03-19T10:30:21;95014.66;;;18.57;25.11
11415;BME280;5763;42.714;23.244;2023-03-19T10:32:52;95014.78;;;18.79;25.75
11415;BME280;5763;42.714;23.244;2023-03-19T10:35:26;95004.50;;;19.33;24.93
11415;BME280;5763;42.714;23.244;2023-03-19T10:38:11;94997.47;;;19.43;25.10
11415;BME280;5763;42.714;23.244;2023-03-19T10:40:49;94982.84;;;19.48;24.94
11415;BME280;5763;42.714;23.244;2023-03-19T10:43:22;94973.50;;;19.40;24.79
11415;BME280;5763;42.714;23.244;2023-03-19T10:45:50;94985.41;;;19.57;24.38
11415;BME280;5763;42.714;23.244;2023-03-19T10:48:18;94976.34;;;19.56;24.02
11415;BME280;5763;42.714;23.244;2023-03-19T10:50:51;94981.13;;;19.67;24.11
11415;BME280;5763;42.714;23.244;2023-03-19T10:53:28;94966.81;;;20.07;24.50
11415;BME280;5763;42.714;23.244;2023-03-19T10:56:00;94960.75;;;20.25;23.29
11415;BME280;5763;42.714;23.244;2023-03-19T10:58:29;94961.28;;;20.34;23.61
11415;BME280;5763;42.714;23.244;2023-03-19T11:00:57;94950.91;;;20.57;24.52
11415;BME280;5763;42.714;23.244;2023-03-19T11:03:30;94939.47;;;20.77;23.02
11415;BME280;5763;42.714;23.244;2023-03-19T11:06:15;94945.44;;;21.08;24.31
11415;BME280;5763;42.714;23.244;2023-03-19T11:08:49;94937.69;;;20.90;23.38
11415;BME280;5763;42.714;23.244;2023-03-19T11:11:25;94928.13;;;20.64;23.15
11415;BME280;5763;42.714;23.244;2023-03-19T11:13:53;94936.16;;;20.84;23.05
11415;BME280;5763;42.714;23.244;2023-03-19T11:16:20;94928.47;;;21.12;23.43
11415;BME280;5763;42.714;23.244;2023-03-19T11:18:47;94917.47;;;21.41;23.58
11415;BME280;5763;42.714;23.244;2023-03-19T11:21:25;94915.69;;;21.44;21.55
11415;BME280;5763;42.714;23.244;2023-03-19T11:23:59;94918.63;;;21.57;21.83
11415;BME280;5763;42.714;23.244;2023-03-19T11:26:27;94912.50;;;21.69;22.57
11415;BME280;5763;42.714;23.244;2023-03-19T11:29:00;94905.53;;;21.92;22.24
11415;BME280;5763;42.714;23.244;2023-03-19T11:31:33;94911.94;;;22.11;22.66
11415;BME280;5763;42.714;23.244;2023-03-19T11:34:14;94900.84;;;22.06;21.65
11415;BME280;5763;42.714;23.244;2023-03-19T11:36:51;94898.22;;;22.48;22.20
11415;BME280;5763;42.714;23.244;2023-03-19T11:39:26;94893.38;;;22.73;21.79
11415;BME280;5763;42.714;23.244;2023-03-19T11:44:59;94889.00;;;23.01;22.15
11415;BME280;5763;42.714;23.244;2023-03-19T11:47:35;94882.84;;;23.27;20.01
11415;BME280;5763;42.714;23.244;2023-03-19T11:50:15;94879.16;;;23.19;20.67
11415;BME280;5763;42.714;23.244;2023-03-19T11:52:58;94867.81;;;23.30;20.44
11415;BME280;5763;42.714;23.244;2023-03-19T11:55:31;94867.50;;;23.52;20.18
11415;BME280;5763;42.714;23.244;2023-03-19T11:58:29;94866.38;;;23.79;20.89
11415;BME280;5763;42.714;23.244;2023-03-19T12:01:03;94862.03;;;23.78;20.79
11415;BME280;5763;42.714;23.244;2023-03-19T12:06:33;94856.63;;;23.67;21.11
11415;BME280;5763;42.714;23.244;2023-03-19T12:09:08;94850.13;;;23.77;20.26
11415;BME280;5763;42.714;23.244;2023-03-19T12:11:44;94846.81;;;23.60;20.65
11415;BME280;5763;42.714;23.244;2023-03-19T12:14:25;94849.34;;;23.45;20.58
11415;BME280;5763;42.714;23.244;2023-03-19T12:17:05;94838.69;;;23.25;21.54
11415;BME280;5763;42.714;23.244;2023-03-19T12:19:51;94841.19;;;23.79;21.21
11415;BME280;5763;42.714;23.244;2023-03-19T12:22:31;94835.75;;;24.31;20.23
11415;BME280;5763;42.714;23.244;2023-03-19T12:25:20;94829.53;;;24.51;20.16
11415;BME280;5763;42.714;23.244;2023-03-19T12:27:54;94837.16;;;24.24;19.94
11415;BME280;5763;42.714;23.244;2023-03-19T12:30:31;94820.94;;;23.91;20.97
11415;BME280;5763;42.714;23.244;2023-03-19T12:33:09;94828.78;;;23.61;21.08
11415;BME280;5763;42.714;23.244;2023-03-19T12:35:38;94829.88;;;23.90;20.79
11415;BME280;5763;42.714;23.244;2023-03-19T12:38:11;94835.47;;;23.71;20.48
11415;BME280;5763;42.714;23.244;2023-03-19T12:40:46;94823.56;;;23.52;20.88
11415;BME280;5763;42.714;23.244;2023-03-19T12:43:17;94816.06;;;23.29;20.92
11415;BME280;5763;42.714;23.244;2023-03-19T12:45:46;94817.44;;;23.17;21.29
11415;BME280;5763;42.714;23.244;2023-03-19T12:48:19;94820.22;;;23.17;21.59
11415;BME280;5763;42.714;23.244;2023-03-19T12:50:50;94813.63;;;23.20;20.99
11415;BME280;5763;42.714;23.244;2023-03-19T12:53:27;94809.25;;;23.43;21.28
11415;BME280;5763;42.714;23.244;2023-03-19T12:56:03;94797.81;;;23.91;21.04
11415;BME280;5763;42.714;23.244;2023-03-19T12:58:41;94798.72;;;23.80;21.47
11415;BME280;5763;42.714;23.244;2023-03-19T13:01:13;94802.56;;;23.96;20.17
11415;BME280;5763;42.714;23.244;2023-03-19T13:03:51;94800.13;;;23.87;21.02
11415;BME280;5763;42.714;23.244;2023-03-19T13:06:20;94796.38;;;23.53;20.46
11415;BME280;5763;42.714;23.244;2023-03-19T13:08:53;94793.88;;;23.18;21.29
11415;BME280;5763;42.714;23.244;2023-03-19T13:11:33;94801.41;;;23.04;22.12
11415;BME280;5763;42.714;23.244;2023-03-19T13:14:05;94796.56;;;23.05;22.15
11415;BME280;5763;42.714;23.244;2023-03-19T13:16:40;94788.22;;;23.55;21.67
11415;BME280;5763;42.714;23.244;2023-03-19T13:19:17;94784.41;;;23.71;20.84
11415;BME280;5763;42.714;23.244;2023-03-19T13:21:49;94789.25;;;23.39;21.00
11415;BME280;5763;42.714;23.244;2023-03-19T13:24:20;94778.63;;;23.19;20.97